Terminal Aerodrome Forecast
Issued by NWS

Home | Current Version | Previous Version | Text Only | Print | Product List | Glossary On
Versions: 1 2 3 4 5 6 7 8 9 10 11
000
FTUS41 KPBZ 272300
TAFBVI
TAF
KBVI 272320Z 2800/2824 20006KT P6SM VCSH BKN050
      TEMPO 2802/2805 5SM -SHRA OVC025
     FM280500 24009KT 5SM -SHRA SCT008 OVC015
     FM280700 27004KT 4SM -RA BR OVC007
     FM281500 30006KT P6SM OVC020
      AMD NOT SKED 2802/2812=

USA.gov is the U.S. government's official web portal to all federal, state and local government web resources and services.